x

Shelikof Strait, Ak (46077) Wave Buoy

8:50pm - Fri 22nd Sep 2017 All times are AKDT. -8 hours from GMT.

  • Sig Wave height 3.3ft
  • Swell Direction
  • Peak Period 8s
  • Average Period 5s
  • Wind
    7mph, 7mph gusts
  • Sea Temp 51°f
  • Air Temp 51°f
  • Sea Pressure 1001.1mb
  • Shelikof  Strait, Ak
  • Shelikof  Strait, Ak

More Historic Weather Station data

Upgrade to MSW Pro to gain access to the past 30 days of data for over 8000 Wavebouys and Weather Stations around the globe.

Join

Comparision Forecast

View Surf forecast
   
Fri 09/22 8:50pm 3.5ft 8s 5s 7 7 mph 1001.1mb 51f 51f
7:50pm 3.5ft 7s 5s 7 7 mph 1001.3mb 51f 51f
6:50pm 3.5ft 7s 5s 7 9 mph 1001.4mb 51f 51f
5:50pm 4.5ft 8s 6s 11 11 mph 1001.6mb 50f 51f
4:50pm 4.5ft 7s 5s 11 16 mph 1001.8mb 50f 51f
3:50pm 4.5ft 7s 5s 11 13 mph 1002mb 50f 51f
2:50pm 4ft 7s 5s 13 16 mph 1002.2mb 50f 50f
1:50pm 5ft 7s 5s 18 22 mph 1002.3mb 50f 50f
12:50pm 5ft 8s 5s 22 27 mph 1002.3mb 50f 51f
11:50am 5.5ft 6s 5s 20 25 mph 1002.3mb 50f 51f
10:50am 6ft 8s 5s 25 29 mph 1002mb 50f 51f
9:50am 6.5ft 7s 6s 25 29 mph 1001.7mb 50f 50f
8:50am 7ft 8s 6s 25 31 mph 1001.4mb 50f 51f
7:50am 7ft 8s 6s 29 34 mph 1001.1mb 50f 51f
6:50am 5ft 8s 6s 20 25 mph 1001.1mb 50f 51f
5:50am 5ft 8s 5s 20 22 mph 1001.1mb 51f 51f
4:50am 3.5ft 8s  -  18 25 mph 1001.3mb 50f 51f
3:50am 2.5ft 10s 5s 13 16 mph 1001.7mb 50f 51f
2:50am 3ft 10s 5s 7 9 mph 1002.3mb 50f 51f
1:50am 2.5ft 8s 5s 9 9 mph 1002.8mb 50f 51f
12:50am 2.5ft 7s 6s 11 16 mph 1003.2mb 51f 51f
Thu 09/21 11:50pm 2ft 7s 6s 11 13 mph 1003.6mb 51f 50f
10:50pm 2ft 7s 6s 2 4 mph 1003.7mb 50f 50f
9:50pm 2ft 7s 5s 2 2 mph 1003.7mb 51f 49f
8:50pm 1.6ft 8s 5s 4 7 mph 1003.6mb 50f 50f
7:50pm 1.6ft 7s 5s 9 9 mph 1003.5mb 50f 49f
6:50pm 1.6ft 8s 5s 9 11 mph 1003.6mb 50f 49f
5:50pm 1.3ft 7s 5s 9 9 mph 1004.1mb 50f 49f
4:50pm 1.3ft 7s  -  9 11 mph 1004.5mb 50f 49f
3:50pm 1.3ft 7s 5s 9 11 mph 1004.8mb 50f 49f
2:50pm 1.6ft 7s 5s 11 13 mph 1005mb 50f 49f
1:50pm 2ft 8s 4s 11 13 mph 1005.1mb 50f 49f
12:50pm 2ft 8s 4s 16 18 mph 1005.4mb 50f 49f
11:50am 1.6ft 8s 4s 16 18 mph 1005.8mb 50f 49f
10:50am 1.6ft 8s 4s 16 18 mph 1006mb 50f 48f
9:50am 1.3ft 8s 4s 11 13 mph 1006.5mb 50f 48f
8:50am 1.3ft 7s 3s 16 16 mph 1006.8mb 50f 48f
7:50am 1.3ft 7s 3s 16 18 mph 1007mb 50f 48f
6:50am 1.3ft 7s 3s 18 20 mph 1007.1mb 51f 47f
5:50am 1.3ft 3s 3s 16 18 mph 1007.8mb 50f 47f
4:50am 1.3ft 3s 3s 16 18 mph 1008.5mb 50f 47f
3:50am 1.6ft 3s 3s 16 18 mph 1008.9mb 50f 47f
2:50am 1.6ft 3s 3s 16 18 mph 1009.5mb 51f 47f
1:50am 1.6ft 3s 3s 16 16 mph 1011mb 51f 47f
12:50am 1.3ft 5s 3s 16 18 mph 1012.1mb 51f 47f
Wed 09/20 11:50pm 1.6ft 5s 5s 13 16 mph 1013.1mb 51f 47f
10:50pm 2ft 6s 5s 9 11 mph 1014.6mb 50f 47f
9:50pm 2.5ft 6s 5s 7 7 mph 1015.9mb 51f 47f
8:50pm 2.5ft 6s 5s 4 4 mph 1016.9mb 51f 47f
7:50pm 2.5ft 6s 5s 2 2 mph 1017.3mb 51f 47f
6:50pm 3ft 6s 5s 9 11 mph 1018.8mb 51f 47f
5:50pm 3ft 6s 5s 13 16 mph 1019.2mb 51f 47f
4:50pm 2.5ft 4s 4s 13 16 mph 1019.6mb 51f 48f
3:50pm 2.5ft 4s 4s 16 18 mph 1020.1mb 51f 48f
2:50pm 2.5ft 4s 4s 20 22 mph 1020.8mb 51f 49f
1:50pm 2.5ft 4s 4s 20 22 mph 1021.1mb 51f 49f
12:50pm 2.5ft 4s 4s 22 27 mph 1021.5mb 51f 50f
11:50am 2.5ft 5s 4s 16 20 mph 1021.6mb 51f 50f
10:50am 2.5ft 5s 4s 16 20 mph 1021.9mb 51f 50f
9:50am 2.5ft 5s 4s 16 18 mph 1022mb 51f 50f
8:50am 2.5ft 4s 4s 18 20 mph 1021.9mb 51f 50f
7:50am 2ft 4s 4s 18 20 mph 1021.7mb 51f 50f
6:50am 2ft 4s 4s 16 18 mph 1021.7mb 51f 49f
5:50am 2ft 4s 4s 16 20 mph 1022mb 51f 49f
4:50am 2.5ft 4s 4s 18 20 mph 1021.9mb 51f 49f
3:50am 2.5ft 4s 4s 13 16 mph 1021.5mb 51f 50f
2:50am 2ft 4s 3s 20 25 mph 1021.5mb 51f 49f
1:50am 2ft 5s 4s 18 20 mph 1021.9mb 51f 50f
12:50am 2.5ft 5s 4s 16 18 mph 1021.4mb 51f 50f
Tue 09/19 11:50pm 2.5ft 5s 4s 18 20 mph 1021.6mb 51f 50f
10:50pm 1.6ft 5s 4s 16 20 mph 1021.5mb 51f 51f
9:50pm 1.6ft 5s 4s 16 20 mph 1021.3mb 51f 51f
8:50pm 1.3ft 6s 4s 11 13 mph 1020.9mb 51f 52f
7:50pm 1.6ft 6s 4s 11 13 mph 1020.5mb 51f 51f
6:50pm 1.6ft 5s 4s 9 11 mph 1020.4mb 50f 51f
5:50pm 1.6ft 6s 4s 9 11 mph 1020.2mb 50f 51f
4:50pm 1.3ft 3s  -  9 11 mph 1020mb 50f 51f
3:50pm 1.6ft 5s 4s 11 13 mph 1019.6mb 50f 51f
2:50pm 1.6ft 6s 3s 9 11 mph 1019.6mb 50f 52f
1:50pm 1.6ft 5s 4s 16 20 mph 1019mb 50f 51f
12:50pm 1.6ft 3s 4s 13 13 mph 1018.8mb 50f 51f
11:50am 2.5ft 5s 4s 11 13 mph 1018.4mb 50f 51f
10:50am 2.5ft 3s 4s 18 22 mph 1018.2mb 50f 49f
9:50am 2.5ft 6s 4s 20 25 mph 1017.9mb 50f 49f
8:50am 2.5ft 5s 4s 16 20 mph 1017.3mb 50f 49f
7:50am 3.5ft 5s 4s 9 11 mph 1017mb 50f 50f
6:50am 3ft 6s 5s 16 20 mph 1016.4mb 50f 50f